createdAt,value
2017-07-24T16:05:06.903Z,1185
2017-07-24T16:05:26.339Z,1185
2017-07-24T16:05:45.753Z,1200
2017-07-24T16:06:05.769Z,1190
2017-07-24T16:06:25.763Z,1195
2017-07-24T16:06:46.046Z,1210
2017-07-24T16:07:20.077Z,1250
2017-07-24T16:07:40.927Z,1250
2017-07-24T16:08:16.339Z,1250
2017-07-24T16:08:38.154Z,1230
2017-07-24T16:08:57.881Z,1225
2017-07-24T16:09:19.928Z,1230
2017-07-24T16:09:54.655Z,1220
2017-07-24T16:10:13.922Z,1210
2017-07-24T16:10:48.542Z,1190
2017-07-24T16:11:08.494Z,1185
2017-07-24T16:11:44.715Z,1175
2017-07-24T16:12:03.921Z,1170
2017-07-24T16:12:28.526Z,1170
2017-07-24T16:12:48.081Z,1165
2017-07-24T16:13:08.837Z,1165
2017-07-24T16:13:29.092Z,1155
2017-07-24T16:13:51.316Z,1155
2017-07-24T16:14:11.844Z,1145
2017-07-24T16:14:32.848Z,1145
2017-07-24T16:15:29.340Z,1135
2017-07-24T16:15:50.119Z,1135
2017-07-24T16:16:11.329Z,1135
2017-07-24T16:16:31.438Z,1130
2017-07-24T16:16:53.080Z,1125
2017-07-24T16:17:12.956Z,1135
2017-07-24T16:17:34.124Z,1120
2017-07-24T16:17:54.657Z,1115
2017-07-24T16:18:28.923Z,1115
2017-07-24T16:18:50.495Z,1110
2017-07-24T16:19:11.469Z,1100
2017-07-24T16:19:32.829Z,1095
2017-07-24T16:19:52.745Z,1095
2017-07-24T16:20:12.569Z,1100
2017-07-24T16:20:33.098Z,1105
2017-07-24T16:21:08.171Z,1095
2017-07-24T16:21:29.355Z,1100
2017-07-24T16:22:05.734Z,1095
2017-07-24T16:22:40.485Z,1105
2017-07-24T16:23:01.014Z,1105
2017-07-24T16:23:37.446Z,1110
2017-07-24T16:24:11.958Z,1105
2017-07-24T16:24:31.149Z,1105
2017-07-24T16:24:51.878Z,1100
2017-07-24T16:25:24.563Z,1090
2017-07-24T16:25:46.095Z,1090
2017-07-24T16:26:05.998Z,1090
2017-07-24T16:26:26.321Z,1095
2017-07-24T16:26:47.676Z,1090
2017-07-24T16:27:35.886Z,1105
2017-07-24T16:28:10.576Z,1105
2017-07-24T16:28:44.732Z,1100
2017-07-24T16:29:04.662Z,1100
2017-07-24T16:29:24.842Z,1105
2017-07-24T16:30:18.280Z,1105
2017-07-24T16:30:38.197Z,1105
2017-07-24T16:30:58.164Z,1110
2017-07-24T16:31:32.398Z,1105
2017-07-24T16:31:53.237Z,1110
2017-07-24T16:32:13.580Z,1110
2017-07-24T16:32:34.059Z,1120
2017-07-24T16:32:54.622Z,1110
2017-07-24T16:33:14.852Z,1110
2017-07-24T16:33:50.717Z,1105
2017-07-24T16:34:11.274Z,1105
2017-07-24T16:34:46.033Z,1115
2017-07-24T16:35:05.868Z,1120
2017-07-24T16:35:26.936Z,1125
2017-07-24T16:36:23.720Z,1115
2017-07-24T16:36:43.814Z,1115
2017-07-24T16:37:04.228Z,1125
2017-07-24T16:37:24.691Z,1130
2017-07-24T16:37:44.741Z,1130
2017-07-24T16:38:05.665Z,1145
2017-07-24T16:38:39.924Z,1145
2017-07-24T16:39:00.408Z,1150
2017-07-24T16:39:21.579Z,1145
2017-07-24T16:39:41.960Z,1155
2017-07-24T16:40:03.890Z,1170
2017-07-24T16:40:25.175Z,1165
2017-07-24T16:40:46.036Z,1175
2017-07-24T16:41:06.940Z,1185
2017-07-24T16:41:41.641Z,1210
2017-07-24T16:42:02.293Z,1220
2017-07-24T16:42:24.163Z,1225
2017-07-24T16:42:43.889Z,1225
2017-07-24T16:43:05.504Z,1225
2017-07-24T16:43:26.850Z,1215
2017-07-24T16:44:00.855Z,1200
2017-07-24T16:44:21.838Z,1195
2017-07-24T16:44:42.636Z,1195
2017-07-24T16:45:05.308Z,1210
2017-07-24T16:45:26.352Z,1215
2017-07-24T16:45:46.126Z,1215
2017-07-24T16:46:07.335Z,1215
2017-07-24T16:46:28.335Z,1210
2017-07-24T16:46:48.005Z,1190
2017-07-24T16:47:08.378Z,1185
2017-07-24T16:47:29.355Z,1165
2017-07-24T16:47:50.301Z,1160
2017-07-24T16:48:15.093Z,1145
2017-07-24T16:48:35.984Z,1140
2017-07-24T16:48:55.688Z,1150
2017-07-24T16:49:16.470Z,1145
2017-07-24T16:49:37.219Z,1145
2017-07-24T16:49:58.716Z,1140
2017-07-24T16:50:21.145Z,1145
2017-07-24T16:50:41.037Z,1155
2017-07-24T16:51:02.462Z,1165
2017-07-24T16:51:36.720Z,1180
2017-07-24T16:51:57.829Z,1185
2017-07-24T16:52:17.436Z,1190
2017-07-24T16:52:37.694Z,1185
2017-07-24T16:53:00.484Z,1175
2017-07-24T16:53:55.473Z,1170
2017-07-24T16:54:15.380Z,1170
2017-07-24T16:54:36.117Z,1170
2017-07-24T16:54:56.326Z,1175
2017-07-24T16:55:17.191Z,1180
2017-07-24T16:55:36.725Z,1190
2017-07-24T16:55:57.728Z,1195
2017-07-24T16:56:53.866Z,1180
2017-07-24T16:58:02.552Z,1160
2017-07-24T16:58:22.586Z,1160
2017-07-24T16:58:42.928Z,1155
2017-07-24T16:59:03.221Z,1160
2017-07-24T16:59:23.085Z,1145
2017-07-24T16:59:59.897Z,1115
2017-07-24T17:00:34.269Z,1110
2017-07-24T17:00:54.540Z,1100
2017-07-24T17:01:17.223Z,1105
2017-07-24T17:01:40.360Z,1085
2017-07-24T17:02:00.190Z,1075
2017-07-24T17:02:20.481Z,1070
2017-07-24T17:02:42.046Z,1060
2017-07-24T17:03:04.061Z,1055
2017-07-24T17:03:24.734Z,1060
2017-07-24T17:04:00.685Z,1065
2017-07-24T17:04:20.994Z,1060
2017-07-24T17:04:41.481Z,1060
2017-07-24T17:05:02.376Z,1065
2017-07-24T17:05:36.944Z,1055
2017-07-24T17:05:57.141Z,1050
2017-07-24T17:06:30.498Z,1040
2017-07-24T17:06:50.165Z,1030
2017-07-24T17:07:10.470Z,1025
2017-07-24T17:07:30.692Z,1025
2017-07-24T17:07:52.165Z,1025
2017-07-24T17:08:14.027Z,1020
2017-07-24T17:08:35.568Z,1020
2017-07-24T17:08:55.265Z,1010
2017-07-24T17:09:51.601Z,1000
2017-07-24T17:10:12.546Z,995
2017-07-24T17:10:34.473Z,995
2017-07-24T17:11:31.652Z,1000
2017-07-24T17:11:52.249Z,1000
2017-07-24T17:12:12.233Z,1000
2017-07-24T17:12:33.135Z,1005
2017-07-24T17:13:43.966Z,1000
2017-07-24T17:14:04.780Z,1000
2017-07-24T17:14:24.748Z,995
2017-07-24T17:14:45.736Z,995
2017-07-24T17:15:05.519Z,995
2017-07-24T17:15:25.528Z,995
2017-07-24T17:15:45.292Z,995
2017-07-24T17:16:04.925Z,995
2017-07-24T17:16:24.553Z,995
2017-07-24T17:16:44.767Z,995
2017-07-24T17:17:04.455Z,1000
2017-07-24T17:17:24.115Z,1000
2017-07-24T17:17:44.272Z,1005
2017-07-24T17:18:52.313Z,1020
2017-07-24T17:19:13.678Z,1020
2017-07-24T17:19:47.365Z,1020
2017-07-24T17:20:22.238Z,1025
2017-07-24T17:20:41.447Z,1020
2017-07-24T17:22:08.191Z,1025
2017-07-24T17:22:28.654Z,1020
2017-07-24T17:22:50.078Z,1015
2017-07-24T17:23:10.412Z,1010
2017-07-24T17:23:32.592Z,1010
2017-07-24T17:23:52.880Z,1005
2017-07-24T17:24:13.310Z,1005
2017-07-24T17:24:35.450Z,1015
2017-07-24T17:25:09.054Z,1015
2017-07-24T17:25:29.532Z,1025
2017-07-24T17:25:49.860Z,1020
2017-07-24T17:26:24.190Z,1015
2017-07-24T17:26:44.120Z,1020
2017-07-24T17:27:06.256Z,1010
2017-07-24T17:27:25.501Z,1015
2017-07-24T17:27:45.412Z,1015
2017-07-24T17:28:20.266Z,1020
2017-07-24T17:28:42.839Z,1020
2017-07-24T17:29:18.481Z,1005
2017-07-24T17:29:52.312Z,1005
2017-07-24T17:30:12.944Z,1000
2017-07-24T17:30:46.558Z,995
2017-07-24T17:31:20.749Z,995
2017-07-24T17:31:54.674Z,1000
2017-07-24T17:32:14.724Z,990
2017-07-24T17:32:48.934Z,990
2017-07-24T17:33:10.233Z,990
2017-07-24T17:33:30.923Z,985
2017-07-24T17:33:51.006Z,980
2017-07-24T17:34:11.663Z,985
2017-07-24T17:34:34.120Z,980
2017-07-24T17:34:54.743Z,975
2017-07-24T17:35:15.660Z,970
2017-07-24T17:35:36.075Z,970
2017-07-24T17:35:56.274Z,970
2017-07-24T17:36:52.612Z,960
2017-07-24T17:37:27.072Z,960
2017-07-24T17:37:46.941Z,955
2017-07-24T17:38:08.803Z,955
2017-07-24T17:38:30.391Z,955
2017-07-24T17:38:50.718Z,955
2017-07-24T17:39:11.045Z,945
2017-07-24T17:39:30.355Z,940
2017-07-24T17:39:50.913Z,940
2017-07-24T17:40:11.207Z,945
2017-07-24T17:40:33.048Z,945
2017-07-24T17:41:06.962Z,935
2017-07-24T17:41:27.610Z,940
2017-07-24T17:41:47.434Z,935
2017-07-24T17:42:08.263Z,940
2017-07-24T17:42:27.272Z,935
2017-07-24T17:42:46.268Z,940
2017-07-24T17:43:06.155Z,930
2017-07-24T17:43:42.943Z,930
2017-07-24T17:44:17.451Z,930
2017-07-24T17:44:37.465Z,930
2017-07-24T17:44:57.902Z,930
2017-07-24T17:45:22.092Z,930
2017-07-24T17:45:56.545Z,930
2017-07-24T17:46:30.726Z,930
2017-07-24T17:46:52.401Z,930
2017-07-24T17:47:13.444Z,925
2017-07-24T17:47:34.350Z,925
2017-07-24T17:48:07.947Z,930
2017-07-24T17:48:44.626Z,930
2017-07-24T17:49:04.124Z,935
2017-07-24T17:49:25.847Z,930
2017-07-24T17:49:46.558Z,930
2017-07-24T17:50:07.899Z,935
2017-07-24T17:50:28.222Z,935
2017-07-24T17:51:01.134Z,935
2017-07-24T17:51:21.106Z,940
2017-07-24T17:51:41.990Z,940
2017-07-24T17:52:02.300Z,945
2017-07-24T17:52:21.328Z,945
2017-07-24T17:52:42.643Z,940
2017-07-24T17:53:02.416Z,935
2017-07-24T17:53:21.478Z,930
2017-07-24T17:53:41.222Z,930
2017-07-24T17:54:01.128Z,935
2017-07-24T17:54:23.260Z,920
2017-07-24T17:54:43.376Z,925
2017-07-24T17:55:02.082Z,925
2017-07-24T17:55:21.446Z,920
2017-07-24T17:55:55.617Z,925
2017-07-24T17:56:16.132Z,915
2017-07-24T17:56:50.764Z,915
2017-07-24T17:57:11.320Z,915
2017-07-24T17:57:29.971Z,930
2017-07-24T17:58:04.666Z,950
2017-07-24T17:58:25.070Z,965
2017-07-24T17:58:59.238Z,965
2017-07-24T17:59:19.000Z,960
2017-07-24T18:00:14.205Z,935
2017-07-24T18:00:35.711Z,930
2017-07-24T18:00:55.773Z,925
2017-07-24T18:01:15.619Z,920
2017-07-24T18:01:35.330Z,910
2017-07-24T18:01:55.542Z,900
2017-07-24T18:02:15.819Z,895
2017-07-24T18:02:33.791Z,895
2017-07-24T18:02:54.597Z,895
2017-07-24T18:03:14.327Z,890
2017-07-24T18:03:34.617Z,885
2017-07-24T18:04:09.567Z,885
2017-07-24T18:04:43.135Z,890
2017-07-24T18:05:17.219Z,890
2017-07-24T18:05:37.458Z,890
2017-07-24T18:05:57.095Z,890
2017-07-24T18:06:17.077Z,885
2017-07-24T18:07:13.364Z,895
2017-07-24T18:07:34.064Z,900
2017-07-24T18:07:56.002Z,905
2017-07-24T18:08:15.587Z,920
2017-07-24T18:08:34.381Z,920
2017-07-24T18:08:54.262Z,930
2017-07-24T18:09:14.188Z,930
2017-07-24T18:09:37.134Z,930
2017-07-24T18:09:57.592Z,930
2017-07-24T18:10:53.463Z,930
2017-07-24T18:11:16.125Z,935
2017-07-24T18:11:52.450Z,935
2017-07-24T18:12:14.747Z,935
2017-07-24T18:13:03.371Z,925
2017-07-24T18:13:25.358Z,915
2017-07-24T18:13:45.302Z,915
2017-07-24T18:14:05.467Z,905
2017-07-24T18:14:25.110Z,915
2017-07-24T18:14:44.221Z,910
2017-07-24T18:15:04.606Z,920
2017-07-24T18:15:24.852Z,915
2017-07-24T18:15:45.198Z,915
2017-07-24T18:16:05.494Z,920
2017-07-24T18:16:23.959Z,915
2017-07-24T18:16:44.709Z,910
2017-07-24T18:17:04.829Z,905
2017-07-24T18:17:25.575Z,900
2017-07-24T18:17:45.789Z,900
2017-07-24T18:18:05.022Z,900
2017-07-24T18:18:24.922Z,900
2017-07-24T18:18:45.065Z,910
2017-07-24T18:19:06.577Z,905
2017-07-24T18:19:28.173Z,900
2017-07-24T18:19:50.067Z,900
2017-07-24T18:20:10.506Z,895
2017-07-24T18:20:30.259Z,890
2017-07-24T18:20:55.543Z,890
2017-07-24T18:21:14.730Z,885
2017-07-24T18:21:35.089Z,890
2017-07-24T18:21:55.532Z,895
2017-07-24T18:22:29.380Z,900
2017-07-24T18:22:49.137Z,895
2017-07-24T18:23:23.420Z,890
2017-07-24T18:23:57.638Z,880
2017-07-24T18:24:16.995Z,875
2017-07-24T18:24:37.318Z,870
2017-07-24T18:24:57.963Z,870
2017-07-24T18:25:33.670Z,870
2017-07-24T18:25:53.340Z,875
2017-07-24T18:26:14.993Z,875
2017-07-24T18:26:35.373Z,870
2017-07-24T18:26:55.780Z,870
2017-07-24T18:27:16.864Z,870
2017-07-24T18:27:50.998Z,875
2017-07-24T18:28:12.863Z,875
2017-07-24T18:28:45.775Z,875
2017-07-24T18:29:05.950Z,870
2017-07-24T18:29:39.357Z,860
2017-07-24T18:30:36.078Z,840
2017-07-24T18:30:56.616Z,840
2017-07-24T18:31:30.053Z,840
2017-07-24T18:31:49.580Z,835
2017-07-24T18:32:10.048Z,835
2017-07-24T18:32:29.856Z,840
2017-07-24T18:32:49.097Z,845
2017-07-24T18:33:45.672Z,830
2017-07-24T18:34:21.636Z,820
2017-07-24T18:34:42.433Z,825
2017-07-24T18:35:17.228Z,815
2017-07-24T18:35:51.087Z,825
2017-07-24T18:36:25.040Z,820
2017-07-24T18:36:44.854Z,825
2017-07-24T18:37:04.818Z,815
2017-07-24T18:37:24.326Z,815
2017-07-24T18:37:43.822Z,815
2017-07-24T18:38:03.972Z,820
2017-07-24T18:38:23.649Z,820
2017-07-24T18:38:49.185Z,825
2017-07-24T18:39:10.927Z,835
2017-07-24T18:39:30.680Z,850
2017-07-24T18:39:50.142Z,870
2017-07-24T18:40:09.694Z,890
2017-07-24T18:40:29.515Z,915
2017-07-24T18:40:49.555Z,935
2017-07-24T18:41:09.028Z,935
2017-07-24T18:41:28.557Z,930
2017-07-24T18:41:47.559Z,925
2017-07-24T18:42:07.687Z,930
2017-07-24T18:42:27.826Z,950
2017-07-24T18:42:47.323Z,955
2017-07-24T18:43:07.465Z,970
2017-07-24T18:43:27.550Z,965
2017-07-24T18:44:01.497Z,930
2017-07-24T18:44:21.634Z,895
2017-07-24T18:44:40.535Z,865
2017-07-24T18:45:00.669Z,840
2017-07-24T18:45:20.844Z,840
2017-07-24T18:45:39.826Z,835
2017-07-24T18:45:59.674Z,835
2017-07-24T18:46:18.582Z,840
2017-07-24T18:46:38.012Z,835
2017-07-24T18:46:58.061Z,845
2017-07-24T18:47:18.149Z,855
2017-07-24T18:47:37.040Z,870
2017-07-24T18:47:56.548Z,890
2017-07-24T18:48:16.650Z,910
2017-07-24T18:48:36.126Z,910
2017-07-24T18:48:56.126Z,920
2017-07-24T18:49:16.107Z,935
2017-07-24T18:49:36.083Z,970
2017-07-24T18:49:55.596Z,1010
2017-07-24T18:50:15.594Z,1060
2017-07-24T18:50:35.064Z,1115
2017-07-24T18:50:55.130Z,1180
2017-07-24T18:51:15.166Z,1230
2017-07-24T18:51:35.171Z,1245
2017-07-24T18:52:09.126Z,1255
2017-07-24T18:52:27.434Z,1250
2017-07-24T18:52:47.462Z,1250
2017-07-24T18:53:06.902Z,1240
2017-07-24T18:53:26.347Z,1240
2017-07-24T18:53:46.385Z,1225
2017-07-24T18:54:05.865Z,1205
2017-07-24T18:54:24.763Z,1185
2017-07-24T18:54:44.220Z,1145
2017-07-24T18:55:03.076Z,1125
2017-07-24T18:55:22.583Z,1105
2017-07-24T18:55:42.013Z,1085
2017-07-24T18:56:01.460Z,1040
2017-07-24T18:56:21.463Z,1005
2017-07-24T18:56:40.351Z,965
2017-07-24T18:56:59.230Z,945
2017-07-24T18:57:18.743Z,945
2017-07-24T18:57:37.140Z,950
2017-07-24T18:57:57.248Z,970
2017-07-24T18:58:16.817Z,995
2017-07-24T18:58:36.341Z,1015
2017-07-24T18:58:55.862Z,1005
2017-07-24T18:59:15.311Z,995
2017-07-24T18:59:35.350Z,980
2017-07-24T18:59:55.369Z,985
2017-07-24T19:00:15.423Z,975
2017-07-24T19:00:34.873Z,960
2017-07-24T19:00:54.310Z,950
2017-07-24T19:01:34.379Z,955
2017-07-24T19:01:54.425Z,930
2017-07-24T19:02:13.469Z,920
2017-07-24T19:02:33.680Z,905
2017-07-24T19:02:53.788Z,880
2017-07-24T19:03:13.274Z,850
2017-07-24T19:03:32.774Z,840
2017-07-24T19:03:52.461Z,830
2017-07-24T19:04:11.417Z,820
2017-07-24T19:04:30.889Z,805
2017-07-24T19:04:50.356Z,800
2017-07-24T19:05:10.367Z,790
2017-07-24T19:05:29.813Z,785
2017-07-24T19:05:49.856Z,775
2017-07-24T19:06:08.786Z,765
2017-07-24T19:06:28.292Z,760
2017-07-24T19:07:02.846Z,735
2017-07-24T19:07:22.893Z,730
2017-07-24T19:07:42.992Z,730
2017-07-24T19:08:03.260Z,730
2017-07-24T19:08:23.303Z,735
2017-07-24T19:08:42.799Z,745
2017-07-24T19:09:02.948Z,755
2017-07-24T19:09:22.948Z,765
2017-07-24T19:09:42.985Z,785
2017-07-24T19:10:02.988Z,810
2017-07-24T19:10:23.144Z,835
2017-07-24T19:10:42.634Z,860
2017-07-24T19:11:02.357Z,885
2017-07-24T19:11:21.877Z,910
2017-07-24T19:11:41.315Z,935
2017-07-24T19:12:01.303Z,955
2017-07-24T19:12:21.337Z,950
2017-07-24T19:12:40.771Z,935
2017-07-24T19:13:14.044Z,910
2017-07-24T19:13:34.031Z,875
2017-07-24T19:13:53.464Z,850
2017-07-24T19:14:12.905Z,835
2017-07-24T19:14:32.349Z,805
2017-07-24T19:14:52.388Z,810
2017-07-24T19:15:11.389Z,800
2017-07-24T19:15:30.294Z,790
2017-07-24T19:15:50.253Z,795
2017-07-24T19:16:09.742Z,805
2017-07-24T19:16:29.255Z,805
2017-07-24T19:16:49.548Z,805
2017-07-24T19:17:08.998Z,785
2017-07-24T19:17:28.438Z,770
2017-07-24T19:17:48.499Z,750
2017-07-24T19:18:07.397Z,730
2017-07-24T19:18:27.432Z,710
2017-07-24T19:18:46.349Z,690
2017-07-24T19:19:04.716Z,695
2017-07-24T19:19:24.821Z,690
2017-07-24T19:19:44.294Z,695
2017-07-24T19:20:04.351Z,695
2017-07-24T19:20:23.277Z,710
2017-07-24T19:20:43.380Z,720
2017-07-24T19:21:03.413Z,745
2017-07-24T19:21:23.426Z,785
2017-07-24T19:21:43.529Z,815
2017-07-24T19:22:02.984Z,830
2017-07-24T19:22:21.887Z,845
2017-07-24T19:22:41.327Z,870
2017-07-24T19:23:01.353Z,870
2017-07-24T19:23:20.803Z,865
2017-07-24T19:23:40.806Z,845
2017-07-24T19:24:00.298Z,840
2017-07-24T19:24:21.738Z,830
2017-07-24T19:24:43.972Z,805
2017-07-24T19:25:03.994Z,810
2017-07-24T19:25:23.985Z,805
2017-07-24T19:25:44.023Z,805
2017-07-24T19:26:04.022Z,810
2017-07-24T19:26:23.449Z,820
2017-07-24T19:26:42.942Z,800
2017-07-24T19:27:02.412Z,795
2017-07-24T19:27:22.419Z,785
2017-07-24T19:27:42.430Z,760
2017-07-24T19:28:02.438Z,740
2017-07-24T19:28:21.908Z,730
2017-07-24T19:28:40.798Z,710
2017-07-24T19:29:00.826Z,690
2017-07-24T19:29:20.315Z,670
2017-07-24T19:29:39.986Z,650
2017-07-24T19:29:59.045Z,635
2017-07-24T19:30:16.844Z,625
2017-07-24T19:30:36.296Z,620
2017-07-24T19:30:57.995Z,620
2017-07-24T19:31:16.974Z,620
2017-07-24T19:31:36.552Z,625
2017-07-24T19:31:56.554Z,630
2017-07-24T19:32:15.420Z,640
2017-07-24T19:32:35.406Z,655
2017-07-24T19:32:55.415Z,645
2017-07-24T19:33:15.410Z,635
2017-07-24T19:33:34.844Z,635
2017-07-24T19:33:54.332Z,625
2017-07-24T19:34:14.431Z,615
2017-07-24T19:34:34.437Z,595
2017-07-24T19:36:53.434Z,605
2017-07-24T19:37:12.877Z,605
2017-07-24T19:37:32.852Z,605
2017-07-24T19:37:53.046Z,605
2017-07-24T19:38:13.386Z,605
2017-07-24T19:38:34.095Z,605
2017-07-24T19:38:54.160Z,610
2017-07-24T19:39:14.168Z,610
2017-07-24T19:39:48.147Z,605
2017-07-24T19:40:08.188Z,600
2017-07-24T19:40:27.068Z,600
2017-07-24T19:40:46.493Z,600
2017-07-24T19:41:06.470Z,605
2017-07-24T19:41:25.352Z,605
2017-07-24T19:41:44.850Z,610
2017-07-24T19:42:04.927Z,605
2017-07-24T19:42:24.395Z,595
2017-07-24T19:42:44.469Z,575
2017-07-24T19:43:03.347Z,555
2017-07-24T19:43:23.435Z,545
2017-07-24T19:43:43.421Z,525
2017-07-24T19:44:02.876Z,505
2017-07-24T19:44:22.319Z,480
2017-07-24T19:44:41.790Z,460
2017-07-24T19:45:01.834Z,440
2017-07-24T19:45:21.266Z,425
2017-07-24T19:45:41.292Z,415
2017-07-24T19:46:00.153Z,410
2017-07-24T19:46:19.580Z,410
2017-07-24T19:46:39.562Z,400
2017-07-24T19:46:59.045Z,395
2017-07-24T19:47:19.048Z,390
2017-07-24T19:47:39.139Z,385
2017-07-24T19:47:59.133Z,385
2017-07-24T19:48:20.888Z,385
2017-07-24T19:48:40.326Z,390
2017-07-24T19:49:00.343Z,385
2017-07-24T19:49:20.389Z,385
2017-07-24T19:49:40.425Z,385
2017-07-24T19:50:00.603Z,385
2017-07-24T19:50:19.500Z,375
2017-07-24T19:50:38.381Z,370
2017-07-24T19:50:57.289Z,365
2017-07-24T19:51:16.744Z,365
2017-07-24T19:51:36.204Z,360
2017-07-24T19:51:55.688Z,360
2017-07-24T19:52:14.571Z,360
2017-07-24T19:52:34.586Z,360
2017-07-24T19:52:54.601Z,360
2017-07-24T19:53:14.076Z,360
2017-07-24T19:53:34.120Z,360
2017-07-24T19:53:54.170Z,365
2017-07-24T19:54:14.167Z,370
2017-07-24T19:54:33.012Z,370
2017-07-24T19:54:53.066Z,375
2017-07-24T19:55:13.061Z,380
2017-07-24T19:55:33.045Z,390
2017-07-24T19:55:52.458Z,390
2017-07-24T19:56:11.886Z,395
2017-07-24T19:56:31.337Z,395
2017-07-24T19:56:51.320Z,390
2017-07-24T19:57:11.515Z,390
2017-07-24T19:57:31.561Z,395
2017-07-24T19:57:51.556Z,385
2017-07-24T19:58:11.058Z,390
2017-07-24T19:58:31.257Z,390
2017-07-24T19:58:50.126Z,385
2017-07-24T19:59:10.158Z,380
2017-07-24T19:59:30.563Z,375
2017-07-24T19:59:49.486Z,370
2017-07-24T20:00:09.492Z,365
2017-07-24T20:00:29.030Z,365
2017-07-24T20:00:49.015Z,365
2017-07-24T20:01:08.446Z,360
2017-07-24T20:01:28.465Z,360
2017-07-24T20:01:48.794Z,350
2017-07-24T20:02:08.214Z,345
2017-07-24T20:02:28.207Z,340
2017-07-24T20:02:47.070Z,325
2017-07-24T20:03:06.526Z,325
2017-07-24T20:03:26.536Z,325
2017-07-24T20:03:46.540Z,310
2017-07-24T20:04:06.533Z,300
2017-07-24T20:04:25.966Z,285
2017-07-24T20:04:45.391Z,275
2017-07-24T20:05:05.398Z,265
2017-07-24T20:05:25.391Z,260
2017-07-24T20:05:45.374Z,255
2017-07-24T20:06:05.408Z,255
2017-07-24T20:06:25.399Z,250
2017-07-24T20:06:44.244Z,255
2017-07-24T20:07:03.669Z,255
2017-07-24T20:07:23.106Z,260
2017-07-24T20:07:42.548Z,265
2017-07-24T20:08:02.007Z,275
2017-07-24T20:08:21.430Z,275
2017-07-24T20:08:40.295Z,270
2017-07-24T20:09:00.304Z,265
2017-07-24T20:09:19.743Z,260
2017-07-24T20:09:39.725Z,260
2017-07-24T20:09:59.200Z,260
2017-07-24T20:10:17.588Z,245
2017-07-24T20:10:37.033Z,240
2017-07-24T20:10:56.469Z,230
2017-07-24T20:11:15.913Z,225
2017-07-24T20:11:35.944Z,220
2017-07-24T20:11:55.394Z,215
2017-07-24T20:12:15.405Z,210
2017-07-24T20:13:02.010Z,200
2017-07-24T20:13:21.477Z,195
2017-07-24T20:13:40.928Z,185
2017-07-24T20:14:01.209Z,180
2017-07-24T20:14:20.077Z,175
2017-07-24T20:14:38.944Z,175
2017-07-24T20:14:58.973Z,170
2017-07-24T20:15:18.971Z,165
2017-07-24T20:15:38.413Z,160
2017-07-24T20:15:58.457Z,155
2017-07-24T20:16:17.925Z,155
2017-07-24T20:16:37.968Z,150
2017-07-24T20:16:58.172Z,145
2017-07-24T20:17:18.186Z,140
2017-07-24T20:17:37.651Z,135
2017-07-24T20:17:57.659Z,135
2017-07-24T20:18:16.515Z,130
2017-07-24T20:18:36.509Z,125
2017-07-24T20:18:56.018Z,120
2017-07-24T20:19:14.896Z,120
2017-07-24T20:19:34.908Z,120
2017-07-24T20:19:54.347Z,115
2017-07-24T20:20:14.402Z,110
2017-07-24T20:20:33.277Z,110
2017-07-24T20:20:53.255Z,105
2017-07-24T20:21:13.244Z,100
2017-07-24T20:21:32.669Z,100
2017-07-24T20:21:52.119Z,95
2017-07-24T20:22:12.359Z,100
2017-07-24T20:22:32.434Z,90
2017-07-24T20:22:52.595Z,85
2017-07-24T20:23:12.620Z,85
2017-07-24T20:23:32.604Z,85
2017-07-24T20:23:52.050Z,80
2017-07-24T20:24:11.496Z,80
2017-07-24T20:24:30.948Z,80
2017-07-24T20:24:50.407Z,80
2017-07-24T20:25:09.882Z,80
2017-07-24T20:25:29.390Z,85
2017-07-24T20:25:49.426Z,85
2017-07-24T20:26:08.849Z,85
2017-07-24T20:26:28.269Z,80
2017-07-24T20:26:47.697Z,80
2017-07-24T20:27:07.672Z,75
2017-07-24T20:27:27.166Z,70
2017-07-24T20:27:46.628Z,70
2017-07-24T20:28:05.596Z,70
2017-07-24T20:28:24.534Z,65
2017-07-24T20:28:44.554Z,65
2017-07-24T20:29:04.585Z,60
2017-07-24T20:29:24.035Z,60
2017-07-24T20:29:43.496Z,55
2017-07-24T20:30:02.391Z,50
2017-07-24T20:30:21.273Z,50
2017-07-24T20:30:41.262Z,50
2017-07-24T20:31:01.249Z,45
2017-07-24T20:31:20.124Z,45
2017-07-24T20:31:39.553Z,40
2017-07-24T20:31:59.001Z,40
2017-07-24T20:32:18.997Z,40
2017-07-24T20:32:38.425Z,35
2017-07-24T20:32:57.904Z,35
2017-07-24T20:33:17.324Z,30
2017-07-24T20:33:37.338Z,30
2017-07-24T20:33:57.369Z,25
2017-07-24T20:34:17.380Z,25
2017-07-24T20:34:37.370Z,25
2017-07-24T20:34:56.816Z,25
2017-07-24T20:35:16.881Z,25
2017-07-24T20:35:36.410Z,20
2017-07-24T20:35:56.456Z,20
2017-07-24T20:36:15.472Z,20
2017-07-24T20:36:35.493Z,20
2017-07-24T20:36:55.591Z,20
2017-07-24T20:37:15.580Z,20
2017-07-24T20:37:35.604Z,15
2017-07-24T20:37:55.030Z,15
2017-07-24T20:38:15.061Z,15
2017-07-24T20:38:35.064Z,15
2017-07-24T20:38:54.489Z,15
2017-07-24T20:39:14.543Z,15
2017-07-24T20:39:34.525Z,15
2017-07-24T20:39:53.411Z,10
2017-07-24T20:40:13.398Z,10
2017-07-24T20:40:32.283Z,10
2017-07-24T20:40:52.270Z,10
2017-07-24T20:41:11.176Z,10
2017-07-24T20:41:30.599Z,10
2017-07-24T20:41:50.034Z,10
2017-07-24T20:42:09.459Z,10
2017-07-24T20:42:28.902Z,10
2017-07-24T20:42:48.909Z,10
2017-07-24T20:43:08.341Z,10
2017-07-24T20:43:28.353Z,5
2017-07-24T20:43:48.338Z,5
2017-07-24T20:44:08.363Z,5
2017-07-24T20:44:28.347Z,5
2017-07-24T20:44:48.328Z,5
2017-07-24T20:45:07.779Z,5
2017-07-24T20:45:27.200Z,5
2017-07-24T20:45:47.197Z,5
2017-07-24T20:46:06.058Z,5
2017-07-24T20:46:25.481Z,5
2017-07-24T20:46:44.906Z,5
2017-07-24T20:47:04.915Z,5
2017-07-24T20:47:24.344Z,5
2017-07-24T20:47:44.389Z,5
2017-07-24T20:48:04.400Z,5
2017-07-24T20:48:23.296Z,5
2017-07-24T20:48:43.286Z,0
2017-07-24T20:49:03.345Z,0
2017-07-24T20:49:22.765Z,0
2017-07-24T20:49:42.792Z,0
2017-07-24T20:50:02.237Z,0
2017-07-24T20:50:21.131Z,0
2017-07-24T20:50:41.166Z,0
2017-07-24T20:51:00.635Z,0
2017-07-24T20:51:20.635Z,0
2017-07-24T20:51:40.647Z,0
2017-07-24T20:52:00.709Z,0
2017-07-24T20:52:20.697Z,0
2017-07-24T20:52:40.123Z,0
2017-07-24T20:52:59.020Z,0
2017-07-24T20:53:18.455Z,0
2017-07-24T20:53:38.450Z,0
2017-07-24T20:53:57.900Z,0
2017-07-24T20:54:17.890Z,0
2017-07-24T20:54:37.885Z,0
2017-07-24T20:54:57.320Z,0
2017-07-24T20:55:17.323Z,0
2017-07-24T20:55:37.306Z,0
2017-07-24T20:55:56.713Z,0
2017-07-24T20:56:15.580Z,0
2017-07-24T20:56:35.560Z,0
2017-07-24T20:56:55.625Z,0
2017-07-24T20:57:14.520Z,0
2017-07-24T20:57:33.951Z,0
2017-07-24T20:57:53.451Z,0
2017-07-24T20:58:12.901Z,0
2017-07-24T20:58:32.347Z,0
2017-07-24T20:58:52.357Z,0
2017-07-24T20:59:12.361Z,0
2017-07-24T20:59:31.223Z,0
2017-07-24T20:59:50.643Z,0
2017-07-24T21:00:10.058Z,0
2017-07-24T21:00:29.519Z,0
2017-07-24T21:00:49.525Z,0
2017-07-24T21:01:09.529Z,0
2017-07-24T21:01:28.404Z,0
2017-07-24T21:01:47.856Z,0
2017-07-24T21:02:07.879Z,0
2017-07-24T21:02:27.318Z,0
2017-07-24T21:02:47.332Z,0
2017-07-24T21:03:07.341Z,0
2017-07-24T21:03:27.328Z,0
2017-07-24T21:03:46.758Z,0
2017-07-24T21:04:06.225Z,0
2017-07-24T21:04:25.663Z,0
2017-07-24T21:04:45.109Z,0
2017-07-24T21:05:05.112Z,0
2017-07-24T21:05:25.107Z,0
2017-07-24T21:05:44.531Z,0
2017-07-24T21:06:04.523Z,0
2017-07-24T21:06:24.498Z,0
2017-07-24T21:06:43.917Z,0
2017-07-24T21:07:03.889Z,0
2017-07-24T21:07:23.312Z,0
2017-07-24T21:07:43.316Z,0
2017-07-24T21:08:02.734Z,0
2017-07-24T21:08:22.206Z,0
2017-07-24T21:08:42.186Z,0
2017-07-24T21:09:02.196Z,0
2017-07-24T21:09:21.269Z,0
2017-07-24T21:09:41.243Z,0
2017-07-24T21:10:01.223Z,0
2017-07-24T21:10:21.229Z,0
2017-07-24T21:10:40.656Z,0
2017-07-24T21:10:59.545Z,0
2017-07-24T21:11:18.943Z,0
2017-07-24T21:11:38.335Z,0
2017-07-24T21:11:58.470Z,0
2017-07-24T21:12:18.465Z,0
2017-07-24T21:12:37.926Z,0
2017-07-24T21:12:57.378Z,0
2017-07-24T21:13:16.848Z,0